Terminal Aerodrome Forecast
Issued by NWS

Home | Current Version | Previous Version | Text Only | Print | Product List | Glossary On
Versions: 1 2 3 4 5 6 7 8 9 10 11 12 13 14 15 16 17 18 19 20 21 22 23 24 25 26
301
FTUS45 KGGW 202320
TAFOLF
TAF
KOLF 202320Z 2100/2124 25006KT P6SM SCT150
     FM210200 28013KT P6SM SCT140
     FM210400 28018KT P6SM VCSH BKN100
     FM210700 27015G23KT P6SM BKN090
     FM211300 27013KT P6SM BKN045=

USA.gov is the U.S. government's official web portal to all federal, state and local government web resources and services.